Time;durP1;ratioP1;P1;durP2;ratioP2;P2;SDS_P1;SDS_P2;PMS_P1;PMS_P2;Temp;Humidity;BMP_temperature;BMP_pressure;BME280_temperature;BME280_humidity;BME280_pressure;Samples;Min_cycle;Max_cycle;Signal;HPM_P1;HPM_P2
2021/11/18 00:00:37;;;;;;;9.70;4.50;;;;;;;8.26;77.59;101784.91;5018923;28;20543;-75
2021/11/18 00:03:26;;;;;;;13.00;4.90;;;;;;;8.26;77.35;101782.28;5018646;28;20463;-77
2021/11/18 00:05:51;;;;;;;6.30;4.70;;;;;;;7.95;78.07;101777.69;5018487;28;20430;-76
2021/11/18 00:08:17;;;;;;;6.83;4.37;;;;;;;8.03;78.06;101790.13;5018702;28;20421;-76
2021/11/18 00:10:45;;;;;;;10.37;5.20;;;;;;;7.89;78.75;101788.75;5001574;28;20181;-74
2021/11/18 00:13:13;;;;;;;13.30;4.60;;;;;;;7.68;79.39;101789.69;5018555;28;20171;-75
2021/11/18 00:15:41;;;;;;;9.53;4.50;;;;;;;7.88;79.20;101771.41;5001909;28;20505;-75
2021/11/18 00:18:10;;;;;;;11.43;4.97;;;;;;;7.42;80.38;101780.91;5018371;28;20467;-74
2021/11/18 00:20:46;;;;;;;7.90;4.10;;;;;;;7.42;80.68;101774.00;5018423;28;20465;-73
2021/11/18 00:23:11;;;;;;;12.70;5.90;;;;;;;7.78;80.30;101777.97;5018327;28;20464;-73
2021/11/18 00:25:38;;;;;;;8.43;4.97;;;;;;;7.76;78.92;101777.88;5018403;28;20380;-73
2021/11/18 00:28:04;;;;;;;22.03;6.03;;;;;;;7.74;79.48;101782.16;5018877;28;20206;-72
2021/11/18 00:30:29;;;;;;;12.43;6.57;;;;;;;7.76;79.48;101784.78;5018384;28;20464;-74
2021/11/18 00:32:55;;;;;;;14.47;6.93;;;;;;;7.88;79.58;101793.03;5001283;28;20381;-74
2021/11/18 00:35:29;;;;;;;15.40;6.00;;;;;;;7.85;79.76;101786.88;5018913;28;20170;-74
2021/11/18 00:37:55;;;;;;;12.40;5.20;;;;;;;7.76;79.63;101790.84;5017206;28;20170;-73
2021/11/18 00:40:25;;;;;;;9.87;5.60;;;;;;;7.47;81.01;101796.63;4985085;28;20564;-73
2021/11/18 00:42:51;;;;;;;11.37;6.10;;;;;;;7.75;79.78;101794.31;5000944;28;20816;-72
2021/11/18 00:45:20;;;;;;;14.40;6.60;;;;;;;7.60;79.92;101796.28;5018470;28;20418;-75
2021/11/18 00:47:45;;;;;;;6.97;4.80;;;;;;;7.39;81.06;101789.44;5018617;28;20425;-74
2021/11/18 00:50:11;;;;;;;8.77;4.77;;;;;;;7.57;80.80;101796.19;5001201;28;20426;-75
2021/11/18 00:52:36;;;;;;;16.37;5.30;;;;;;;7.19;82.25;101787.75;5030682;28;20222;-74
2021/11/18 00:55:04;;;;;;;8.70;4.90;;;;;;;7.30;81.50;101786.47;5038432;28;20205;-74
2021/11/18 00:57:30;;;;;;;8.23;4.33;;;;;;;7.21;82.59;101768.84;5037557;28;20166;-75
2021/11/18 00:59:55;;;;;;;10.50;4.63;;;;;;;7.23;82.24;101769.78;5037793;28;20445;-75
2021/11/18 01:02:21;;;;;;;17.10;5.10;;;;;;;7.36;81.83;101773.75;5038035;28;20166;-75
2021/11/18 01:04:47;;;;;;;13.10;4.83;;;;;;;7.32;82.70;101779.66;5037714;28;20166;-75
2021/11/18 01:07:12;;;;;;;11.47;5.20;;;;;;;7.25;82.46;101772.44;5037806;28;20193;-74
2021/11/18 01:09:38;;;;;;;9.27;4.83;;;;;;;7.23;81.93;101768.91;5038240;28;20224;-75
2021/11/18 01:12:05;;;;;;;15.17;5.53;;;;;;;7.02;82.29;101769.81;5037416;28;20193;-74
2021/11/18 01:14:31;;;;;;;11.00;4.97;;;;;;;7.09;82.60;101778.75;5037899;28;20516;-75
2021/11/18 01:16:56;;;;;;;11.03;4.80;;;;;;;6.90;83.15;101782.25;5038065;28;20435;-75
2021/11/18 01:19:22;;;;;;;11.27;4.40;;;;;;;7.05;82.36;101785.50;5020535;28;20167;-74
2021/11/18 01:21:49;;;;;;;17.60;5.47;;;;;;;6.93;83.02;101791.88;5040062;28;20220;-73
2021/11/18 01:24:14;;;;;;;15.63;5.47;;;;;;;7.09;82.71;101796.88;5024017;28;20521;-74
2021/11/18 01:26:40;;;;;;;13.60;5.37;;;;;;;6.91;82.63;101799.59;5037447;28;20425;-74
2021/11/18 01:29:05;;;;;;;11.13;5.20;;;;;;;6.84;83.24;101801.03;5037356;28;20209;-74
2021/11/18 01:31:31;;;;;;;14.70;5.50;;;;;;;6.83;83.38;101809.66;5037749;28;20170;-74
2021/11/18 01:33:57;;;;;;;10.67;5.40;;;;;;;6.82;83.21;101815.66;5037497;28;20494;-74
2021/11/18 01:36:22;;;;;;;11.97;5.53;;;;;;;6.91;82.80;101810.84;5020234;28;20536;-75
2021/11/18 01:38:48;;;;;;;15.13;5.50;;;;;;;6.67;83.07;101812.38;5038171;28;20396;-75
2021/11/18 01:41:23;;;;;;;12.47;5.63;;;;;;;7.01;82.21;101809.53;5052980;28;20213;-74
2021/11/18 01:43:51;;;;;;;15.13;4.80;;;;;;;6.81;83.12;101811.28;5037379;28;20280;-75
2021/11/18 01:46:21;;;;;;;10.73;5.20;;;;;;;6.81;83.32;101818.19;5037444;28;20417;-74
2021/11/18 01:48:48;;;;;;;12.70;5.20;;;;;;;6.86;82.67;101812.38;5022122;28;20436;-74
2021/11/18 01:51:13;;;;;;;14.40;6.80;;;;;;;6.88;82.90;101812.44;5040863;28;20834;-75
2021/11/18 01:53:42;;;;;;;11.27;4.50;;;;;;;6.79;82.79;101819.81;5041054;28;20392;-75
2021/11/18 01:56:14;;;;;;;15.73;5.50;;;;;;;6.78;83.49;101821.53;5040722;28;20217;-74
2021/11/18 01:58:40;;;;;;;9.20;4.50;;;;;;;6.81;83.14;101821.66;5040703;28;20491;-74
2021/11/18 02:01:07;;;;;;;13.47;6.37;;;;;;;6.95;82.28;101808.38;5023087;28;20471;-75
2021/11/18 02:03:33;;;;;;;10.87;5.47;;;;;;;7.21;81.45;101822.41;5041075;28;20683;-75
2021/11/18 02:06:06;;;;;;;10.53;4.70;;;;;;;7.07;82.39;101811.47;5023621;28;20399;-74
2021/11/18 02:08:31;;;;;;;13.63;5.50;;;;;;;7.15;82.76;101809.22;5023312;28;20473;-74
2021/11/18 02:11:02;;;;;;;11.83;5.40;;;;;;;7.18;81.70;101811.91;5041067;28;20383;-75
2021/11/18 02:13:28;;;;;;;13.10;5.20;;;;;;;6.88;83.12;101810.72;5040507;28;20185;-75
2021/11/18 02:15:56;;;;;;;16.80;5.40;;;;;;;7.18;82.26;101810.19;5040517;28;20392;-75
2021/11/18 02:18:27;;;;;;;11.50;5.57;;;;;;;6.97;82.30;101812.81;5040850;28;20213;-74
2021/11/18 02:20:55;;;;;;;14.03;5.17;;;;;;;7.07;82.62;101814.06;5040263;28;21744;-76
2021/11/18 02:23:31;;;;;;;13.00;5.20;;;;;;;6.93;82.95;101815.19;5040366;28;20648;-75
2021/11/18 02:25:58;;;;;;;15.20;5.30;;;;;;;7.14;82.29;101815.22;5022980;28;20486;-75
2021/11/18 02:28:27;;;;;;;11.40;5.10;;;;;;;6.85;82.79;101814.91;5040070;28;20458;-74
2021/11/18 02:30:53;;;;;;;14.20;5.20;;;;;;;7.10;82.24;101809.00;5023453;28;20742;-76
2021/11/18 02:33:19;;;;;;;14.13;5.60;;;;;;;7.07;82.87;101814.06;5040260;28;20705;-74
2021/11/18 02:35:45;;;;;;;16.57;4.90;;;;;;;7.22;82.25;101819.00;5040659;28;20475;-74
2021/11/18 02:38:11;;;;;;;9.03;5.30;;;;;;;7.38;81.56;101817.91;5023157;28;20174;-74
2021/11/18 02:40:36;;;;;;;16.83;5.60;;;;;;;7.06;82.47;101815.78;5040176;28;20521;-75
2021/11/18 02:43:04;;;;;;;15.63;5.83;;;;;;;7.36;81.43;101822.16;5040272;28;20201;-75
2021/11/18 02:45:34;;;;;;;17.27;6.30;;;;;;;7.45;81.61;101821.66;5039914;28;20193;-75
2021/11/18 02:48:00;;;;;;;16.27;6.70;;;;;;;7.30;81.43;101830.56;5039752;28;20417;-75
2021/11/18 02:50:37;;;;;;;14.43;5.90;;;;;;;7.49;81.27;101828.72;5040251;28;20418;-75
2021/11/18 02:53:04;;;;;;;10.33;4.97;;;;;;;7.30;81.76;101821.91;5006229;28;20514;-75
2021/11/18 02:55:33;;;;;;;14.90;5.83;;;;;;;7.44;81.72;101818.16;5020284;28;20428;-74
2021/11/18 02:57:59;;;;;;;8.70;5.13;;;;;;;7.23;81.93;101815.59;5010545;28;20524;-76
2021/11/18 03:00:46;;;;;;;11.07;5.40;;;;;;;7.36;82.13;101812.69;5021374;28;20527;-75
2021/11/18 03:03:12;;;;;;;13.00;5.30;;;;;;;7.59;81.19;101802.31;5038976;28;20194;-73
2021/11/18 03:05:38;;;;;;;14.40;5.50;;;;;;;7.55;81.01;101800.41;5039575;28;20802;-75
2021/11/18 03:08:03;;;;;;;10.97;4.67;;;;;;;7.51;81.70;101799.44;5039644;28;20421;-70
2021/11/18 03:10:29;;;;;;;17.20;5.90;;;;;;;10.31;81.96;101790.53;5039249;28;20860;-60
2021/11/18 03:12:55;;;;;;;14.67;5.63;;;;;;;10.93;71.97;101789.56;5039404;28;20174;-61
2021/11/18 03:15:22;;;;;;;10.30;5.43;;;;;;;13.05;70.28;101781.72;5039227;28;20499;-60
2021/11/18 03:17:47;;;;;;;9.13;4.73;;;;;;;10.15;70.90;101788.31;5039177;28;20180;-74
2021/11/18 03:20:15;;;;;;;7.87;4.23;;;;;;;8.95;74.64;101804.63;5039319;28;20727;-73
2021/11/18 03:22:41;;;;;;;9.40;4.93;;;;;;;8.74;77.87;101800.47;5038971;28;20177;-68
2021/11/18 03:25:08;;;;;;;11.93;4.83;;;;;;;8.46;78.09;101813.31;5039041;28;20425;-68
2021/11/18 03:27:33;;;;;;;14.70;5.10;;;;;;;8.35;79.21;101815.50;5022416;28;20202;-68
2021/11/18 03:29:58;;;;;;;10.67;4.87;;;;;;;8.04;80.25;101817.00;5021676;28;20522;-69
2021/11/18 03:32:24;;;;;;;11.43;5.07;;;;;;;8.39;80.07;101813.09;5038751;28;20213;-68
2021/11/18 03:34:49;;;;;;;13.50;5.23;;;;;;;8.38;80.32;101821.69;5039461;28;20174;-68
2021/11/18 03:37:15;;;;;;;17.57;4.90;;;;;;;8.50;80.24;101816.09;5039011;28;20519;-67
2021/11/18 03:39:40;;;;;;;10.10;4.60;;;;;;;7.92;82.92;101825.22;5021726;28;20435;-67
2021/11/18 03:42:08;;;;;;;12.93;5.03;;;;;;;7.86;83.34;101815.47;5039046;28;20189;-68
2021/11/18 03:44:34;;;;;;;13.87;5.80;;;;;;;8.26;82.74;101826.47;5021610;28;20210;-68
2021/11/18 03:47:03;;;;;;;11.53;4.60;;;;;;;8.14;83.09;101826.00;5038819;28;20383;-68
2021/11/18 03:49:28;;;;;;;15.53;5.67;;;;;;;8.22;83.33;101820.25;5039312;28;20418;-68
2021/11/18 03:51:56;;;;;;;16.87;5.80;;;;;;;8.12;83.28;101822.47;5038487;28;20496;-68
2021/11/18 03:54:23;;;;;;;15.87;5.47;;;;;;;8.29;83.41;101818.78;5038746;28;20182;-68
2021/11/18 03:56:49;;;;;;;16.57;5.87;;;;;;;8.38;82.90;101811.31;5021901;28;20449;-68
2021/11/18 03:59:17;;;;;;;12.20;5.80;;;;;;;8.07;84.40;101817.97;5038773;28;20392;-68
2021/11/18 04:01:43;;;;;;;14.93;4.70;;;;;;;8.04;84.71;101815.28;5038385;28;20507;-68
2021/11/18 04:04:11;;;;;;;12.73;5.57;;;;;;;8.19;83.59;101819.28;5039066;28;20428;-67
2021/11/18 04:06:38;;;;;;;19.90;5.90;;;;;;;7.98;84.52;101820.22;5038268;28;20432;-68
2021/11/18 04:09:04;;;;;;;11.67;5.13;;;;;;;8.14;84.76;101815.63;5038303;28;20399;-68
2021/11/18 04:11:30;;;;;;;11.23;5.20;;;;;;;8.44;82.68;101821.03;5038268;28;20430;-68
2021/11/18 04:13:55;;;;;;;12.50;6.17;;;;;;;8.45;83.09;101811.53;5038276;28;20721;-67
2021/11/18 04:16:20;;;;;;;14.80;5.33;;;;;;;8.36;84.53;101815.59;5038279;28;20438;-69
2021/11/18 04:18:46;;;;;;;14.87;5.47;;;;;;;8.43;83.44;101819.28;5038956;28;20175;-67
2021/11/18 04:21:11;;;;;;;14.83;5.63;;;;;;;8.20;84.33;101826.22;5038153;28;20224;-67
2021/11/18 04:23:36;;;;;;;19.57;5.80;;;;;;;8.32;83.54;101824.09;5038249;28;20174;-68
2021/11/18 04:26:04;;;;;;;17.07;6.10;;;;;;;8.54;83.50;101832.69;5038856;28;20189;-68
2021/11/18 04:28:30;;;;;;;11.80;5.90;;;;;;;8.50;82.85;101825.63;5038209;28;20544;-68
2021/11/18 04:31:03;;;;;;;8.63;5.40;;;;;;;8.42;83.11;101833.97;5037948;28;20710;-67
2021/11/18 04:33:29;;;;;;;20.70;6.63;;;;;;;8.46;83.85;101839.31;5038224;28;20421;-68
2021/11/18 04:35:56;;;;;;;19.70;6.23;;;;;;;8.53;83.28;101833.53;5038241;28;20428;-68
2021/11/18 04:38:21;;;;;;;15.10;5.57;;;;;;;8.53;83.03;101823.13;5038352;28;20392;-68
2021/11/18 04:40:47;;;;;;;12.40;6.50;;;;;;;8.87;81.65;101819.09;5037754;28;20468;-68
2021/11/18 04:43:12;;;;;;;13.90;5.43;;;;;;;8.27;83.84;101810.06;5037934;28;20181;-68
2021/11/18 04:45:38;;;;;;;12.77;6.23;;;;;;;8.49;82.86;101816.06;5038461;28;20443;-68
2021/11/18 04:48:03;;;;;;;17.03;7.37;;;;;;;8.39;83.09;101810.50;5043275;28;20170;-68
2021/11/18 04:50:29;;;;;;;14.50;7.40;;;;;;;8.31;83.63;101809.34;5026607;28;20186;-68
2021/11/18 04:52:54;;;;;;;18.47;6.37;;;;;;;8.51;82.37;101811.78;5047737;28;20487;-68
2021/11/18 04:55:23;;;;;;;14.33;7.43;;;;;;;8.34;82.98;101814.63;5058070;28;20441;-68
2021/11/18 04:57:49;;;;;;;17.47;7.83;;;;;;;8.46;83.54;101813.31;5057996;28;20166;-69
2021/11/18 05:00:19;;;;;;;17.03;7.17;;;;;;;8.04;84.58;101819.59;5057749;28;20456;-67
2021/11/18 05:02:46;;;;;;;19.43;6.80;;;;;;;8.40;83.36;101814.88;5057741;28;20862;-69
2021/11/18 05:05:12;;;;;;;14.50;6.63;;;;;;;8.14;84.30;101820.81;5058539;28;20553;-68
2021/11/18 05:07:37;;;;;;;14.33;6.97;;;;;;;8.31;84.18;101818.81;5057686;28;20530;-68
2021/11/18 05:10:04;;;;;;;14.03;6.10;;;;;;;7.99;84.63;101827.19;5057843;28;20173;-68
2021/11/18 05:12:30;;;;;;;14.07;6.87;;;;;;;8.03;85.56;101829.09;5058682;28;20471;-68
2021/11/18 05:14:55;;;;;;;15.10;6.87;;;;;;;8.14;84.62;101836.41;5057547;28;20419;-68
2021/11/18 05:17:20;;;;;;;15.93;6.07;;;;;;;8.05;85.11;101836.94;5057072;28;20215;-68
2021/11/18 05:19:46;;;;;;;13.33;7.53;;;;;;;8.42;83.62;101833.09;5058316;28;20162;-68
2021/11/18 05:22:11;;;;;;;21.13;7.50;;;;;;;8.36;84.00;101820.78;5057407;28;20244;-68
2021/11/18 05:24:36;;;;;;;20.20;6.90;;;;;;;8.54;84.20;101830.09;5061097;28;20185;-68
2021/11/18 05:27:02;;;;;;;21.10;8.37;;;;;;;8.16;83.77;101838.22;5061936;28;20173;-68
2021/11/18 05:29:27;;;;;;;17.87;7.30;;;;;;;8.26;83.92;101831.66;5061231;28;20209;-68
2021/11/18 05:31:53;;;;;;;15.33;8.40;;;;;;;8.42;83.30;101833.97;5061086;28;20431;-68
2021/11/18 05:34:18;;;;;;;19.97;8.33;;;;;;;8.10;84.79;101848.38;5061938;28;20219;-68
2021/11/18 05:36:44;;;;;;;13.23;6.83;;;;;;;8.31;83.92;101840.50;5061037;28;20439;-67
2021/11/18 05:39:09;;;;;;;15.20;8.13;;;;;;;8.61;83.08;101845.06;5061228;28;20220;-69
2021/11/18 05:41:35;;;;;;;11.00;6.13;;;;;;;8.36;83.71;101848.47;5061299;28;20239;-68
2021/11/18 05:44:04;;;;;;;26.90;8.00;;;;;;;8.75;81.80;101851.66;5061193;28;20182;-69
2021/11/18 05:46:32;;;;;;;12.17;8.00;;;;;;;8.54;82.91;101849.16;5061048;28;20162;-68
2021/11/18 05:48:58;;;;;;;15.70;7.33;;;;;;;8.49;84.06;101850.72;5061430;28;20375;-68
2021/11/18 05:51:24;;;;;;;16.63;7.67;;;;;;;8.53;82.88;101855.19;5057730;28;20461;-69
2021/11/18 05:53:49;;;;;;;14.10;7.33;;;;;;;8.24;84.29;101854.09;5023708;28;20508;-67
2021/11/18 05:56:17;;;;;;;17.70;7.83;;;;;;;8.59;82.54;101849.31;5041561;28;20242;-70
2021/11/18 05:58:44;;;;;;;15.27;7.30;;;;;;;8.68;82.91;101851.38;5023804;28;20178;-70
2021/11/18 06:01:11;;;;;;;18.30;8.10;;;;;;;8.54;83.06;101845.69;5040606;28;20464;-70
2021/11/18 06:03:38;;;;;;;20.83;8.13;;;;;;;8.58;82.83;101848.44;5007636;28;20414;-68
2021/11/18 06:06:04;;;;;;;22.17;8.53;;;;;;;8.80;82.31;101840.53;5040628;28;20421;-68
2021/11/18 06:08:30;;;;;;;13.90;7.73;;;;;;;8.80;81.97;101850.94;5040796;28;20444;-69
2021/11/18 06:10:55;;;;;;;11.90;7.00;;;;;;;8.66;82.74;101864.31;5040826;28;20540;-69
2021/11/18 06:13:20;;;;;;;18.73;7.57;;;;;;;8.84;81.89;101871.00;5023259;28;20198;-68
2021/11/18 06:15:46;;;;;;;18.13;8.20;;;;;;;8.74;82.15;101873.28;5040590;28;20485;-69
2021/11/18 06:18:12;;;;;;;17.63;8.10;;;;;;;8.68;83.50;101873.03;5040981;28;20258;-68
2021/11/18 06:20:38;;;;;;;20.83;7.50;;;;;;;8.62;83.13;101890.13;5040119;28;20586;-69
2021/11/18 06:23:05;;;;;;;15.17;7.13;;;;;;;8.52;83.51;101881.13;5022909;28;20182;-69
2021/11/18 06:25:31;;;;;;;14.80;8.00;;;;;;;8.78;82.63;101874.25;5040607;28;20375;-70
2021/11/18 06:27:56;;;;;;;21.80;7.83;;;;;;;8.59;83.68;101870.13;5040006;28;20395;-70
2021/11/18 06:30:27;;;;;;;17.03;7.87;;;;;;;8.76;82.54;101873.31;5040166;28;20236;-70
2021/11/18 06:32:52;;;;;;;17.90;7.50;;;;;;;8.53;84.22;101873.38;5040313;28;20170;-69
2021/11/18 06:35:18;;;;;;;22.23;8.00;;;;;;;8.83;82.07;101877.03;5040153;28;20392;-69
2021/11/18 06:37:43;;;;;;;19.30;8.40;;;;;;;8.73;82.39;101874.09;5040050;28;20186;-68
2021/11/18 06:40:11;;;;;;;17.60;8.00;;;;;;;8.63;83.00;101878.91;5040256;28;20256;-68
2021/11/18 06:42:38;;;;;;;15.13;7.93;;;;;;;8.52;84.18;101876.81;5022772;28;20551;-69
2021/11/18 06:45:04;;;;;;;22.20;9.27;;;;;;;9.09;82.41;101880.53;5022954;28;20403;-69
2021/11/18 06:47:29;;;;;;;27.23;8.07;;;;;;;8.95;82.25;101894.78;5040294;28;20484;-68
2021/11/18 06:49:55;;;;;;;26.67;8.20;;;;;;;8.88;81.84;101899.75;5039988;28;20166;-69
2021/11/18 06:52:20;;;;;;;18.10;8.07;;;;;;;8.99;81.72;101901.88;5039395;28;20473;-67
2021/11/18 06:54:49;;;;;;;17.70;7.97;;;;;;;8.81;82.60;101887.38;5040051;28;20170;-68
2021/11/18 06:57:15;;;;;;;16.40;7.83;;;;;;;8.64;82.62;101885.91;5039591;28;20182;-69
2021/11/18 06:59:40;;;;;;;17.27;7.70;;;;;;;8.93;82.79;101889.53;5039699;28;20787;-68
2021/11/18 07:02:06;;;;;;;20.10;10.00;;;;;;;8.93;82.01;101893.00;5039698;28;20394;-68
2021/11/18 07:04:31;;;;;;;25.07;9.50;;;;;;;8.79;83.10;101886.44;5039542;28;20178;-67
2021/11/18 07:06:57;;;;;;;15.53;8.10;;;;;;;9.05;82.45;101896.84;5039497;28;20528;-67
2021/11/18 07:09:22;;;;;;;21.07;8.90;;;;;;;9.26;81.38;101894.13;5040024;28;20375;-68
2021/11/18 07:11:47;;;;;;;17.90;8.27;;;;;;;9.24;80.73;101898.38;5039143;28;20584;-67
2021/11/18 07:14:13;;;;;;;27.07;9.13;;;;;;;9.10;81.35;101892.69;5039359;28;20545;-68
2021/11/18 07:16:38;;;;;;;21.13;8.00;;;;;;;8.97;81.20;101898.31;5039976;28;20424;-68
2021/11/18 07:19:05;;;;;;;21.77;8.50;;;;;;;9.17;80.62;101905.06;5039333;28;20209;-68
2021/11/18 07:21:32;;;;;;;21.10;9.20;;;;;;;8.92;82.29;101892.97;5038905;28;20510;-68
2021/11/18 07:23:58;;;;;;;20.50;7.50;;;;;;;9.03;81.66;101898.53;5039869;28;20487;-69
2021/11/18 07:26:24;;;;;;;16.53;8.57;;;;;;;8.94;81.79;101896.47;5039109;28;20653;-68
2021/11/18 07:28:50;;;;;;;28.03;8.93;;;;;;;8.82;82.97;101912.56;5021882;28;20407;-69
2021/11/18 07:31:15;;;;;;;15.73;8.40;;;;;;;9.10;81.12;101919.59;5039431;28;20793;-68
2021/11/18 07:33:41;;;;;;;24.17;8.90;;;;;;;9.05;82.35;101921.16;5039305;28;20227;-69
2021/11/18 07:36:07;;;;;;;17.17;8.13;;;;;;;9.31;80.88;101913.38;5021805;28;20273;-67
2021/11/18 07:38:33;;;;;;;24.20;9.40;;;;;;;9.15;81.71;101913.69;5039389;28;20174;-68
2021/11/18 07:40:59;;;;;;;26.53;10.07;;;;;;;9.41;81.16;101920.63;5038713;28;20737;-68
2021/11/18 07:43:31;;;;;;;16.63;8.37;;;;;;;9.25;81.39;101919.25;5021748;28;20399;-68
2021/11/18 07:46:00;;;;;;;22.40;8.60;;;;;;;9.17;82.07;101917.22;5021750;28;20749;-68
2021/11/18 07:48:26;;;;;;;16.53;8.47;;;;;;;9.44;81.16;101909.44;5038869;28;20708;-68
2021/11/18 07:50:51;;;;;;;18.00;8.70;;;;;;;9.07;82.65;101914.28;5038830;28;20435;-67
2021/11/18 07:53:17;;;;;;;23.23;9.03;;;;;;;9.21;81.98;101924.28;5038400;28;20233;-68
2021/11/18 07:55:43;;;;;;;21.30;9.10;;;;;;;9.03;82.93;101916.75;5021597;28;20182;-69
2021/11/18 07:58:08;;;;;;;19.27;8.20;;;;;;;9.02;83.06;101920.16;5038894;28;20244;-68
2021/11/18 08:00:34;;;;;;;17.60;8.87;;;;;;;9.35;82.39;101916.94;5038548;28;20567;-67
2021/11/18 08:03:05;;;;;;;24.83;8.80;;;;;;;9.20;81.71;101917.31;5038502;28;20170;-67
2021/11/18 08:05:31;;;;;;;18.97;9.43;;;;;;;9.39;81.94;101922.31;5039094;28;20205;-67
2021/11/18 08:07:56;;;;;;;16.97;8.37;;;;;;;9.57;81.38;101921.16;5038385;28;20457;-67
2021/11/18 08:10:21;;;;;;;17.30;9.20;;;;;;;9.45;81.81;101919.03;5038430;28;20197;-69
2021/11/18 08:12:47;;;;;;;20.03;8.43;;;;;;;9.49;80.95;101907.00;5038686;28;20232;-70
2021/11/18 08:15:14;;;;;;;17.97;8.80;;;;;;;9.32;82.70;101914.25;5021300;28;20186;-67
2021/11/18 08:17:39;;;;;;;25.47;9.03;;;;;;;9.34;82.75;101916.06;5038296;28;20166;-68
2021/11/18 08:20:06;;;;;;;19.90;9.57;;;;;;;9.43;82.50;101913.78;5038717;28;20489;-68
2021/11/18 08:22:31;;;;;;;21.07;9.27;;;;;;;9.42;82.45;101917.22;5038116;28;20174;-69
2021/11/18 08:24:57;;;;;;;22.03;10.23;;;;;;;9.39;81.86;101917.13;5038425;28;20388;-68
2021/11/18 08:27:22;;;;;;;25.50;10.10;;;;;;;9.47;82.45;101921.69;5039192;28;20221;-69
2021/11/18 08:29:47;;;;;;;25.40;10.17;;;;;;;9.46;81.58;101920.81;5021178;28;20193;-69
2021/11/18 08:32:14;;;;;;;18.67;9.83;;;;;;;9.48;82.12;101920.84;5038045;28;20163;-68
2021/11/18 08:34:39;;;;;;;25.23;10.90;;;;;;;9.81;80.69;101927.97;5038478;28;20166;-68
2021/11/18 08:37:06;;;;;;;23.03;10.37;;;;;;;9.37;82.39;101931.78;5037962;28;20383;-69
2021/11/18 08:39:31;;;;;;;27.63;11.63;;;;;;;9.52;81.51;101922.72;5020617;28;20178;-68
2021/11/18 08:42:03;;;;;;;23.80;11.57;;;;;;;9.47;82.08;101930.41;5020919;28;20452;-69
2021/11/18 08:44:29;;;;;;;20.53;12.83;;;;;;;9.71;81.16;101925.06;5037956;28;20174;-67
2021/11/18 08:46:55;;;;;;;26.23;10.47;;;;;;;9.49;81.88;101933.03;5037746;28;20402;-69
2021/11/18 08:49:21;;;;;;;23.80;10.90;;;;;;;9.39;82.98;101956.16;5038310;28;20413;-68
2021/11/18 08:51:48;;;;;;;20.80;11.73;;;;;;;9.57;82.11;101947.19;5037548;28;20439;-70
2021/11/18 08:54:20;;;;;;;27.40;11.73;;;;;;;9.67;81.29;101953.59;5037790;28;20391;-69
2021/11/18 08:56:46;;;;;;;20.10;10.40;;;;;;;9.64;81.91;101943.94;5038294;28;20387;-69
2021/11/18 08:59:13;;;;;;;28.30;13.00;;;;;;;9.58;81.40;101948.97;5038411;28;20875;-71
2021/11/18 09:01:43;;;;;;;23.93;11.60;;;;;;;9.41;82.31;101935.38;5031824;28;20450;-70
2021/11/18 09:04:18;;;;;;;21.50;11.50;;;;;;;9.56;81.65;101925.47;5050849;28;20448;-70
2021/11/18 09:06:44;;;;;;;24.97;11.60;;;;;;;9.12;84.04;101921.38;5044614;28;20424;-69
2021/11/18 09:09:11;;;;;;;24.93;12.23;;;;;;;9.63;82.23;101929.16;5042245;28;20519;-68
2021/11/18 09:11:38;;;;;;;25.73;12.40;;;;;;;9.59;82.51;101925.59;5041512;28;20403;-68
2021/11/18 09:14:04;;;;;;;23.47;12.00;;;;;;;9.55;82.23;101934.13;5041780;28;20486;-69
2021/11/18 09:16:31;;;;;;;30.50;12.17;;;;;;;9.74;82.03;101933.00;5024708;28;20456;-69
2021/11/18 09:18:56;;;;;;;21.87;10.87;;;;;;;9.93;81.17;101933.56;5041607;28;20421;-69
2021/11/18 09:21:25;;;;;;;16.23;10.77;;;;;;;9.24;82.96;101937.41;5024288;28;20537;-68
2021/11/18 09:24:03;;;;;;;24.33;12.90;;;;;;;9.48;82.93;101934.75;5024983;28;20174;-70
2021/11/18 09:26:31;;;;;;;21.30;12.27;;;;;;;9.78;81.81;101928.75;5041533;28;20407;-69
2021/11/18 09:28:59;;;;;;;29.07;12.37;;;;;;;9.84;81.19;101936.78;5024202;28;20436;-69
2021/11/18 09:31:24;;;;;;;21.27;12.13;;;;;;;9.95;80.95;101931.91;5024337;28;20387;-68
2021/11/18 09:33:51;;;;;;;26.60;11.93;;;;;;;9.74;81.40;101945.13;5041387;28;20528;-68
2021/11/18 09:36:18;;;;;;;23.23;12.40;;;;;;;10.07;81.26;101936.63;5041702;28;20170;-70
2021/11/18 09:38:45;;;;;;;20.60;12.93;;;;;;;9.85;81.35;101937.66;5041204;28;20427;-70
2021/11/18 09:41:35;;;;;;;21.57;12.90;;;;;;;9.88;80.92;101938.66;5040772;28;20435;-71
2021/11/18 09:44:19;;;;;;;25.83;12.70;;;;;;;10.05;80.89;101947.00;5041101;28;20475;-71
2021/11/18 09:47:05;;;;;;;23.13;11.63;;;;;;;10.14;80.06;101949.00;5023815;28;20405;-72
2021/11/18 09:49:55;;;;;;;21.70;13.20;;;;;;;10.04;79.82;101946.94;5041037;28;20396;-71
2021/11/18 09:52:35;;;;;;;18.07;12.63;;;;;;;10.11;80.13;101949.78;5039984;28;20510;-71
2021/11/18 09:55:08;;;;;;;26.93;13.07;;;;;;;10.02;80.27;101933.00;5039792;28;20448;-72
2021/11/18 09:58:13;;;;;;;23.40;12.60;;;;;;;10.34;79.22;101933.97;5039741;28;20690;-71
2021/11/18 10:01:03;;;;;;;22.07;13.07;;;;;;;10.13;80.07;101947.22;5039483;28;20476;-71
2021/11/18 10:03:45;;;;;;;24.50;13.20;;;;;;;9.98;80.90;101949.38;5039551;28;20419;-72
2021/11/18 10:06:30;;;;;;;29.13;13.50;;;;;;;10.22;80.42;101960.53;5022188;28;20420;-72
2021/11/18 10:09:02;;;;;;;25.33;13.10;;;;;;;10.16;79.70;101951.66;5021769;28;20409;-71
2021/11/18 10:11:30;;;;;;;22.70;12.97;;;;;;;9.83;80.42;101949.75;5039220;28;20429;-71
2021/11/18 10:14:06;;;;;;;21.77;12.43;;;;;;;10.42;79.86;101952.50;5039380;28;20387;-71
2021/11/18 10:17:09;;;;;;;23.63;12.10;;;;;;;10.43;78.98;101957.75;5039241;28;20383;-72
2021/11/18 10:19:36;;;;;;;21.10;12.37;;;;;;;10.24;79.67;101950.16;4979012;28;20480;-68
2021/11/18 10:22:03;;;;;;;21.47;11.80;;;;;;;10.39;79.28;101929.81;4962752;28;20442;-69
2021/11/18 10:24:33;;;;;;;23.63;13.10;;;;;;;10.04;80.62;101929.59;5007950;28;20440;-70
2021/11/18 10:27:20;;;;;;;19.40;12.77;;;;;;;10.19;79.93;101930.88;5039779;28;20420;-71
2021/11/18 10:30:10;;;;;;;24.17;12.60;;;;;;;10.32;79.58;101916.53;5038382;28;20540;-71
2021/11/18 10:33:02;;;;;;;26.20;13.27;;;;;;;10.34;79.81;101923.56;5038977;28;20512;-69
2021/11/18 10:35:36;;;;;;;19.70;13.13;;;;;;;10.50;78.84;101913.59;5039049;28;20421;-69
2021/11/18 10:38:31;;;;;;;33.77;12.17;;;;;;;10.11;80.23;101915.91;5022251;28;20817;-70
2021/11/18 10:41:17;;;;;;;25.60;12.07;;;;;;;10.44;79.37;101909.09;5025515;28;20707;-72
2021/11/18 10:43:43;;;;;;;26.47;12.10;;;;;;;10.35;79.75;101903.59;5039125;28;20391;-75
2021/11/18 10:46:25;;;;;;;28.93;12.13;;;;;;;10.47;79.62;101909.16;5039024;28;20424;-73
2021/11/18 10:49:09;;;;;;;22.83;11.53;;;;;;;10.93;77.39;101918.31;5021847;28;20477;-73
2021/11/18 10:51:50;;;;;;;21.93;10.53;;;;;;;10.68;77.98;101913.25;4988891;28;1099736;-72
2021/11/18 10:54:17;;;;;;;19.33;10.53;;;;;;;10.90;77.46;101893.84;5059962;28;20223;-75
2021/11/18 10:57:00;;;;;;;17.17;10.20;;;;;;;10.81;77.85;101901.41;5059815;28;20398;-75
2021/11/18 10:59:43;;;;;;;24.27;10.77;;;;;;;10.50;79.07;101914.50;5059813;28;20416;-75
2021/11/18 11:02:24;;;;;;;21.10;10.57;;;;;;;10.68;79.13;101906.31;5058620;28;20455;-76
2021/11/18 11:04:56;;;;;;;22.23;10.00;;;;;;;10.37;78.98;101902.81;5059560;28;20390;-76
2021/11/18 11:07:40;;;;;;;29.10;11.00;;;;;;;10.45;79.44;101903.91;5059481;28;20419;-72
2021/11/18 11:10:13;;;;;;;21.83;10.40;;;;;;;10.49;79.15;101897.06;5059452;28;20419;-72
2021/11/18 11:12:47;;;;;;;22.27;10.10;;;;;;;10.68;78.02;101887.16;5058646;28;20408;-72
2021/11/18 11:15:21;;;;;;;22.43;10.50;;;;;;;10.89;77.91;101890.38;5058808;28;20660;-73
2021/11/18 11:18:15;;;;;;;19.73;10.27;;;;;;;10.75;78.60;101895.19;5058699;28;20386;-76
2021/11/18 11:21:09;;;;;;;20.97;10.40;;;;;;;10.81;78.28;101888.38;5057800;28;20460;-72
2021/11/18 11:23:41;;;;;;;20.30;11.40;;;;;;;10.72;78.02;101882.06;5059206;28;20443;-71
2021/11/18 11:26:28;;;;;;;18.63;9.97;;;;;;;11.01;77.75;101870.66;5059447;28;20817;-72
2021/11/18 11:29:11;;;;;;;14.60;8.90;;;;;;;10.60;78.10;101866.09;5059254;28;20878;-74